createdAt,value
2023-04-07T00:01:32.659Z,91.80
2023-04-07T00:04:01.138Z,91.80
2023-04-07T00:06:29.515Z,91.80
2023-04-07T00:08:57.450Z,92.20
2023-04-07T00:11:25.612Z,91.90
2023-04-07T00:13:53.663Z,92.00
2023-04-07T00:16:21.938Z,92.10
2023-04-07T00:18:51.330Z,92.30
2023-04-07T00:21:19.318Z,92.90
2023-04-07T00:23:47.681Z,92.70
2023-04-07T00:26:15.658Z,92.80
2023-04-07T00:28:43.596Z,92.90
2023-04-07T00:31:11.634Z,92.90
2023-04-07T00:33:39.576Z,92.90
2023-04-07T00:36:09.246Z,92.90
2023-04-07T00:38:37.234Z,92.90
2023-04-07T00:41:05.179Z,93.20
2023-04-07T00:43:33.170Z,92.90
2023-04-07T00:46:01.452Z,92.90
2023-04-07T00:48:29.828Z,92.90
2023-04-07T00:50:58.021Z,92.80
2023-04-07T00:53:27.444Z,92.80
2023-04-07T00:55:55.587Z,92.90
2023-04-07T00:58:23.513Z,93.00
2023-04-07T01:00:59.570Z,93.00
2023-04-07T01:03:32.620Z,93.10
2023-04-07T01:06:03.438Z,93.10
2023-04-07T01:08:43.794Z,93.10
2023-04-07T01:11:19.944Z,93.20
2023-04-07T01:13:50.853Z,93.10
2023-04-07T01:16:25.977Z,93.30
2023-04-07T01:18:58.413Z,93.30
2023-04-07T01:21:29.752Z,93.40
2023-04-07T01:24:17.737Z,93.70
2023-04-07T01:26:48.146Z,93.40
2023-04-07T01:29:35.695Z,93.50
2023-04-07T01:32:06.166Z,93.50
2023-04-07T01:34:35.683Z,93.40
2023-04-07T01:37:04.059Z,93.50
2023-04-07T01:39:33.592Z,93.50
2023-04-07T01:42:02.984Z,93.50
2023-04-07T01:44:34.208Z,93.60
2023-04-07T01:47:02.998Z,93.70
2023-04-07T01:49:33.039Z,93.80
2023-04-07T01:52:01.644Z,93.90
2023-04-07T01:54:30.302Z,93.90
2023-04-07T01:56:58.297Z,94.30
2023-04-07T01:59:26.637Z,94.40
2023-04-07T02:01:56.198Z,94.10
2023-04-07T02:04:32.156Z,94.20
2023-04-07T02:07:04.086Z,94.30
2023-04-07T02:09:34.308Z,94.30
2023-04-07T02:12:05.339Z,94.30
2023-04-07T02:14:34.350Z,94.40
2023-04-07T02:17:04.962Z,94.40
2023-04-07T02:19:34.739Z,94.40
2023-04-07T02:22:04.371Z,94.40
2023-04-07T02:24:32.317Z,94.40
2023-04-07T02:27:02.057Z,94.50
2023-04-07T02:29:30.147Z,94.50
2023-04-07T02:31:58.280Z,94.40
2023-04-07T02:34:27.716Z,94.40
2023-04-07T02:36:55.754Z,94.40
2023-04-07T02:39:23.737Z,94.40
2023-04-07T02:41:51.737Z,94.40
2023-04-07T02:44:19.703Z,94.40
2023-04-07T02:46:47.668Z,94.40
2023-04-07T02:49:15.696Z,94.40
2023-04-07T02:51:46.913Z,94.40
2023-04-07T02:54:14.890Z,94.40
2023-04-07T02:56:42.836Z,94.50
2023-04-07T02:59:10.782Z,94.40
2023-04-07T03:01:40.465Z,94.40
2023-04-07T03:04:08.713Z,94.40
2023-04-07T03:06:36.815Z,94.40
2023-04-07T03:09:06.679Z,94.40
2023-04-07T03:11:34.701Z,94.40
2023-04-07T03:14:02.688Z,94.40
2023-04-07T03:16:36.725Z,94.50
2023-04-07T03:19:04.691Z,94.60
2023-04-07T03:21:33.305Z,94.60
2023-04-07T03:24:01.204Z,94.70
2023-04-07T03:26:30.779Z,94.70
2023-04-07T03:28:58.738Z,94.70
2023-04-07T03:31:26.770Z,94.70
2023-04-07T03:33:54.854Z,94.60
2023-04-07T03:36:23.011Z,94.50
2023-04-07T03:38:51.450Z,94.50
2023-04-07T03:41:19.387Z,94.50
2023-04-07T03:43:48.669Z,94.40
2023-04-07T03:46:16.767Z,94.40
2023-04-07T03:48:44.731Z,94.30
2023-04-07T03:51:12.753Z,94.30
2023-04-07T03:53:40.886Z,94.30
2023-04-07T03:56:09.158Z,94.30
2023-04-07T03:58:37.133Z,94.30
2023-04-07T04:01:06.512Z,94.30
2023-04-07T04:03:34.572Z,94.30
2023-04-07T04:06:02.657Z,94.30
2023-04-07T04:08:31.088Z,94.30
2023-04-07T04:10:59.082Z,94.30
2023-04-07T04:13:27.175Z,94.40
2023-04-07T04:15:55.219Z,94.40
2023-04-07T04:18:24.621Z,94.40
2023-04-07T04:20:52.605Z,94.50
2023-04-07T04:23:20.579Z,94.50
2023-04-07T04:25:48.512Z,94.50
2023-04-07T04:28:16.638Z,94.50
2023-04-07T04:30:44.562Z,94.50
2023-04-07T04:33:12.556Z,94.40
2023-04-07T04:35:41.854Z,94.40
2023-04-07T04:38:09.870Z,94.50
2023-04-07T04:40:37.834Z,94.50
2023-04-07T04:43:07.048Z,94.50
2023-04-07T04:45:35.064Z,94.60
2023-04-07T04:48:03.161Z,94.60
2023-04-07T04:50:31.147Z,94.70
2023-04-07T04:53:00.512Z,94.70
2023-04-07T04:55:28.485Z,94.70
2023-04-07T04:57:56.906Z,94.70
2023-04-07T05:00:25.045Z,94.80
2023-04-07T05:02:53.225Z,94.80
2023-04-07T05:05:21.459Z,94.80
2023-04-07T05:07:49.532Z,95.00
2023-04-07T05:10:19.290Z,95.10
2023-04-07T05:12:47.386Z,95.20
2023-04-07T05:15:15.741Z,95.30
2023-04-07T05:17:43.781Z,95.30
2023-04-07T05:20:12.566Z,95.50
2023-04-07T05:22:40.517Z,95.60
2023-04-07T05:25:09.431Z,95.70
2023-04-07T05:27:38.801Z,95.70
2023-04-07T05:30:08.158Z,95.70
2023-04-07T05:32:36.119Z,95.80
2023-04-07T05:35:04.148Z,95.80
2023-04-07T05:37:32.141Z,96.00
2023-04-07T05:40:00.240Z,95.70
2023-04-07T05:42:28.233Z,95.80
2023-04-07T05:44:57.711Z,95.90
2023-04-07T05:47:26.043Z,95.80
2023-04-07T05:49:54.370Z,95.70
2023-04-07T05:52:22.361Z,95.60
2023-04-07T05:54:50.353Z,95.80
2023-04-07T05:57:18.440Z,95.50
2023-04-07T05:59:47.103Z,95.50
2023-04-07T06:02:16.598Z,95.60
2023-04-07T06:04:44.805Z,95.70
2023-04-07T06:07:12.766Z,96.00
2023-04-07T06:09:42.577Z,95.80
2023-04-07T06:12:12.307Z,95.80
2023-04-07T06:14:40.508Z,96.00
2023-04-07T06:17:08.539Z,96.10
2023-04-07T06:19:39.436Z,96.20
2023-04-07T06:22:07.375Z,96.20
2023-04-07T06:24:35.367Z,96.60
2023-04-07T06:27:03.716Z,96.40
2023-04-07T06:29:31.748Z,96.40
2023-04-07T06:31:59.794Z,96.50
2023-04-07T06:34:27.726Z,96.50
2023-04-07T06:36:58.202Z,96.40
2023-04-07T06:39:28.873Z,96.40
2023-04-07T06:41:57.750Z,96.40
2023-04-07T06:44:25.763Z,96.40
2023-04-07T06:46:55.519Z,96.50
2023-04-07T06:49:23.590Z,96.50
2023-04-07T06:51:51.517Z,96.50
2023-04-07T06:54:21.503Z,96.50
2023-04-07T06:56:49.498Z,96.70
2023-04-07T06:59:17.457Z,96.80
2023-04-07T07:01:46.419Z,96.90
2023-04-07T07:04:14.493Z,97.00
2023-04-07T07:06:42.600Z,97.00
2023-04-07T07:09:10.735Z,96.90
2023-04-07T07:11:41.147Z,96.80
2023-04-07T07:14:09.085Z,96.70
2023-04-07T07:16:37.282Z,96.60
2023-04-07T07:19:05.316Z,97.00
2023-04-07T07:21:33.236Z,96.60
2023-04-07T07:24:01.186Z,96.60
2023-04-07T07:26:29.198Z,96.70
2023-04-07T07:28:58.685Z,96.60
2023-04-07T07:31:26.708Z,96.50
2023-04-07T07:33:54.777Z,96.30
2023-04-07T07:36:22.768Z,96.20
2023-04-07T07:38:51.896Z,96.40
2023-04-07T07:41:19.855Z,95.80
2023-04-07T07:43:48.274Z,95.40
2023-04-07T07:46:17.932Z,95.50
2023-04-07T07:48:46.578Z,95.20
2023-04-07T07:51:14.593Z,95.30
2023-04-07T07:53:42.613Z,95.60
2023-04-07T07:56:10.873Z,95.90
2023-04-07T07:58:39.220Z,95.40
2023-04-07T08:01:07.283Z,94.70
2023-04-07T08:03:36.737Z,93.90
2023-04-07T08:06:05.037Z,93.50
2023-04-07T08:08:33.023Z,93.00
2023-04-07T08:11:01.232Z,93.40
2023-04-07T08:13:29.209Z,93.50
2023-04-07T08:15:57.336Z,93.40
2023-04-07T08:18:25.397Z,93.50
2023-04-07T08:20:54.709Z,93.10
2023-04-07T08:23:22.721Z,92.90
2023-04-07T08:25:51.192Z,93.10
2023-04-07T08:28:19.164Z,93.10
2023-04-07T08:30:47.143Z,92.90
2023-04-07T08:33:15.534Z,93.00
2023-04-07T08:35:43.527Z,92.70
2023-04-07T08:38:12.887Z,92.90
2023-04-07T08:40:40.887Z,92.60
2023-04-07T08:43:11.081Z,92.40
2023-04-07T08:45:42.137Z,92.40
2023-04-07T08:48:17.574Z,92.60
2023-04-07T08:50:46.758Z,92.10
2023-04-07T08:53:20.261Z,91.20
2023-04-07T08:55:48.280Z,91.30
2023-04-07T08:58:17.443Z,91.00
2023-04-07T09:00:49.184Z,91.10
2023-04-07T09:03:18.897Z,91.10
2023-04-07T09:05:47.440Z,91.20
2023-04-07T09:08:16.800Z,91.20
2023-04-07T09:10:44.817Z,91.10
2023-04-07T09:13:12.915Z,91.00
2023-04-07T09:15:41.489Z,90.80
2023-04-07T09:18:09.570Z,90.90
2023-04-07T09:20:57.768Z,91.10
2023-04-07T09:23:31.627Z,90.80
2023-04-07T09:26:03.135Z,90.50
2023-04-07T09:28:42.792Z,90.50
2023-04-07T09:31:10.849Z,90.90
2023-04-07T09:33:39.265Z,90.80
2023-04-07T09:36:07.913Z,90.80
2023-04-07T09:38:39.058Z,90.90
2023-04-07T09:41:08.831Z,91.10
2023-04-07T09:43:44.704Z,91.20
2023-04-07T09:46:15.483Z,91.40
2023-04-07T09:48:44.879Z,91.60
2023-04-07T09:51:14.344Z,91.70
2023-04-07T09:53:49.044Z,91.60
2023-04-07T09:56:18.965Z,91.70
2023-04-07T09:58:48.313Z,91.70
2023-04-07T10:01:17.960Z,91.80
2023-04-07T10:03:47.888Z,91.70
2023-04-07T10:06:16.541Z,91.40
2023-04-07T10:08:46.906Z,91.60
2023-04-07T10:11:18.030Z,91.80
2023-04-07T10:13:46.698Z,91.90
2023-04-07T10:16:15.125Z,91.90
2023-04-07T10:18:43.469Z,91.90
2023-04-07T10:21:15.201Z,92.00
2023-04-07T10:23:57.944Z,92.10
2023-04-07T10:26:31.398Z,92.10
2023-04-07T10:29:03.835Z,92.30
2023-04-07T10:31:32.227Z,92.50
2023-04-07T10:34:01.474Z,92.70
2023-04-07T10:36:29.609Z,92.70
2023-04-07T10:39:24.295Z,93.00
2023-04-07T10:41:53.259Z,93.20
2023-04-07T10:44:47.147Z,93.60
2023-04-07T10:47:15.320Z,93.90
2023-04-07T10:50:21.518Z,94.20
2023-04-07T10:52:50.563Z,94.70
2023-04-07T10:55:37.567Z,94.80
2023-04-07T10:58:16.200Z,95.40
2023-04-07T11:00:44.808Z,95.70
2023-04-07T11:03:14.315Z,96.20
2023-04-07T11:05:43.099Z,97.00
2023-04-07T11:08:11.430Z,96.80
2023-04-07T11:10:40.876Z,97.20
2023-04-07T11:13:10.357Z,97.50
2023-04-07T11:15:40.621Z,97.80
2023-04-07T11:18:20.248Z,97.90
2023-04-07T11:20:52.611Z,98.30
2023-04-07T11:23:23.057Z,98.50
2023-04-07T11:25:53.910Z,98.80
2023-04-07T11:28:21.880Z,98.90
2023-04-07T11:30:52.597Z,99.10
2023-04-07T11:33:22.608Z,99.10
2023-04-07T11:35:56.741Z,98.90
2023-04-07T11:38:26.150Z,99.20
2023-04-07T11:40:56.390Z,99.20
2023-04-07T11:43:25.680Z,99.10
2023-04-07T11:46:08.363Z,99.10
2023-04-07T11:48:37.791Z,99.50
2023-04-07T11:51:06.770Z,99.50
2023-04-07T11:53:37.967Z,99.70
2023-04-07T11:56:10.021Z,99.80
2023-04-07T11:58:38.776Z,99.90
2023-04-07T12:01:09.070Z,99.90
2023-04-07T12:03:39.037Z,99.90
2023-04-07T12:06:08.624Z,99.90
2023-04-07T12:08:41.383Z,99.90
2023-04-07T12:11:11.090Z,99.90
2023-04-07T12:13:39.686Z,99.90
2023-04-07T12:16:07.883Z,99.90
2023-04-07T12:18:36.562Z,99.90
2023-04-07T12:21:05.107Z,99.90
2023-04-07T12:23:33.130Z,99.90
2023-04-07T12:26:01.149Z,99.90
2023-04-07T12:28:30.649Z,99.90
2023-04-07T12:30:58.932Z,99.90
2023-04-07T12:33:27.006Z,99.90
2023-04-07T12:35:55.077Z,99.90
2023-04-07T12:38:23.080Z,99.90
2023-04-07T12:40:51.706Z,99.90
2023-04-07T12:43:19.705Z,99.90
2023-04-07T12:45:49.100Z,99.90
2023-04-07T12:48:18.703Z,99.90
2023-04-07T12:50:46.763Z,99.90
2023-04-07T12:53:14.760Z,99.90
2023-04-07T12:55:42.761Z,99.90
2023-04-07T12:58:10.758Z,99.90
2023-04-07T13:00:38.780Z,99.90
2023-04-07T13:03:08.351Z,99.90
2023-04-07T13:05:36.469Z,99.90
2023-04-07T13:08:04.603Z,99.90
2023-04-07T13:10:32.884Z,99.90
2023-04-07T13:13:01.059Z,99.90
2023-04-07T13:15:29.328Z,99.90
2023-04-07T13:17:57.312Z,99.90
2023-04-07T13:20:28.158Z,99.90
2023-04-07T13:25:28.816Z,99.90
2023-04-07T13:27:56.794Z,99.90
2023-04-07T13:30:24.818Z,99.90
2023-04-07T13:32:53.098Z,99.90
2023-04-07T13:35:21.442Z,99.90
2023-04-07T13:37:50.894Z,99.90
2023-04-07T13:40:19.004Z,99.90
2023-04-07T13:42:47.335Z,99.90
2023-04-07T13:45:15.473Z,99.90
2023-04-07T13:47:43.492Z,99.90
2023-04-07T13:50:11.895Z,99.90
2023-04-07T13:52:39.860Z,99.90
2023-04-07T13:55:10.471Z,99.90
2023-04-07T13:57:38.472Z,99.90
2023-04-07T14:00:08.413Z,99.90
2023-04-07T14:02:36.520Z,99.90
2023-04-07T14:05:04.606Z,99.90
2023-04-07T14:07:32.645Z,99.90
2023-04-07T14:10:00.625Z,99.90
2023-04-07T14:12:29.956Z,99.90
2023-04-07T14:14:57.939Z,99.90
2023-04-07T14:17:26.003Z,99.90
2023-04-07T14:19:54.141Z,99.90
2023-04-07T14:22:22.138Z,99.90
2023-04-07T14:24:50.112Z,99.90
2023-04-07T14:27:22.380Z,99.90
2023-04-07T14:29:51.690Z,99.90
2023-04-07T14:32:19.866Z,99.90
2023-04-07T14:34:47.900Z,99.90
2023-04-07T14:37:16.651Z,99.90
2023-04-07T14:39:55.275Z,99.90
2023-04-07T14:42:33.427Z,99.90
2023-04-07T14:45:02.851Z,99.90
2023-04-07T14:47:30.898Z,99.90
2023-04-07T14:49:58.894Z,99.90
2023-04-07T14:52:27.592Z,99.90
2023-04-07T14:54:56.027Z,99.90
2023-04-07T14:57:24.913Z,99.90
2023-04-07T14:59:52.884Z,99.90
2023-04-07T15:02:22.566Z,99.90
2023-04-07T15:04:50.767Z,99.90
2023-04-07T15:07:18.824Z,99.90
2023-04-07T15:09:48.736Z,99.90
2023-04-07T15:12:16.735Z,99.90
2023-04-07T15:14:45.917Z,99.90
2023-04-07T15:17:13.935Z,99.90
2023-04-07T15:19:44.165Z,99.90
2023-04-07T15:22:12.304Z,99.90
2023-04-07T15:24:40.335Z,99.90
2023-04-07T15:27:09.088Z,99.90
2023-04-07T15:29:37.320Z,99.90
2023-04-07T15:32:05.528Z,99.90
2023-04-07T15:34:33.645Z,99.90
2023-04-07T15:37:04.133Z,99.90
2023-04-07T15:39:32.209Z,99.90
2023-04-07T15:42:00.700Z,99.90
2023-04-07T15:44:28.745Z,99.90
2023-04-07T15:46:57.023Z,99.90
2023-04-07T15:49:26.216Z,99.90
2023-04-07T15:51:54.322Z,99.90
2023-04-07T15:54:23.730Z,99.90
2023-04-07T15:56:51.755Z,99.90
2023-04-07T15:59:19.740Z,99.90
2023-04-07T16:01:48.013Z,99.90
2023-04-07T16:04:16.296Z,99.90
2023-04-07T16:06:44.398Z,99.90
2023-04-07T16:09:12.374Z,99.90
2023-04-07T16:11:41.758Z,99.90
2023-04-07T16:14:09.752Z,99.90
2023-04-07T16:16:40.718Z,99.90
2023-04-07T16:19:09.931Z,99.90
2023-04-07T16:21:39.430Z,99.90
2023-04-07T16:24:07.431Z,99.90
2023-04-07T16:26:35.924Z,99.90
2023-04-07T16:29:05.341Z,99.90
2023-04-07T16:31:33.351Z,99.90
2023-04-07T16:34:01.788Z,99.90
2023-04-07T16:36:29.754Z,99.90
2023-04-07T16:38:57.706Z,99.90
2023-04-07T16:41:26.275Z,99.90
2023-04-07T16:43:54.224Z,99.90
2023-04-07T16:46:25.867Z,99.90
2023-04-07T16:48:53.987Z,99.90
2023-04-07T16:51:22.180Z,99.90
2023-04-07T16:53:50.287Z,99.90
2023-04-07T16:56:18.647Z,99.90
2023-04-07T16:58:46.965Z,99.90
2023-04-07T17:01:15.472Z,99.90
2023-04-07T17:03:45.025Z,99.90
2023-04-07T17:06:13.021Z,99.90
2023-04-07T17:08:41.017Z,99.90
2023-04-07T17:11:10.426Z,99.90
2023-04-07T17:13:40.107Z,99.90
2023-04-07T17:16:12.878Z,99.90
2023-04-07T17:18:40.956Z,99.90
2023-04-07T17:21:10.252Z,99.90
2023-04-07T17:23:38.345Z,99.90
2023-04-07T17:26:06.491Z,99.90
2023-04-07T17:28:34.540Z,99.90
2023-04-07T17:31:02.975Z,99.90
2023-04-07T17:33:31.176Z,99.90
2023-04-07T17:35:59.181Z,99.90
2023-04-07T17:38:28.557Z,99.90
2023-04-07T17:40:59.470Z,99.90
2023-04-07T17:43:27.460Z,99.90
2023-04-07T17:45:55.778Z,99.90
2023-04-07T17:48:23.877Z,99.90
2023-04-07T17:50:52.107Z,99.90
2023-04-07T17:53:20.661Z,99.90
2023-04-07T17:55:50.644Z,99.90
2023-04-07T17:58:20.110Z,99.90
2023-04-07T18:00:51.963Z,99.90
2023-04-07T18:03:20.165Z,99.90
2023-04-07T18:05:49.229Z,99.90
2023-04-07T18:08:18.096Z,99.90
2023-04-07T18:10:46.236Z,99.90
2023-04-07T18:13:15.584Z,99.90
2023-04-07T18:15:43.668Z,99.90
2023-04-07T18:18:11.673Z,99.90
2023-04-07T18:20:39.784Z,99.90
2023-04-07T18:23:08.286Z,99.90
2023-04-07T18:25:36.508Z,99.90
2023-04-07T18:28:04.564Z,99.90
2023-04-07T18:30:33.964Z,99.90
2023-04-07T18:33:01.990Z,99.90
2023-04-07T18:35:30.142Z,99.90
2023-04-07T18:37:59.145Z,99.90
2023-04-07T18:40:30.048Z,99.90
2023-04-07T18:42:59.158Z,99.90
2023-04-07T18:45:28.576Z,99.90
2023-04-07T18:47:58.987Z,99.90
2023-04-07T18:50:27.897Z,99.90
2023-04-07T18:52:56.678Z,99.90
2023-04-07T18:55:25.781Z,99.90
2023-04-07T18:57:54.764Z,99.90
2023-04-07T19:00:24.197Z,99.90
2023-04-07T19:02:52.405Z,99.90
2023-04-07T19:05:23.808Z,99.90
2023-04-07T19:07:53.636Z,99.90
2023-04-07T19:10:21.868Z,99.90
2023-04-07T19:12:49.897Z,99.90
2023-04-07T19:15:18.026Z,99.90
2023-04-07T19:17:46.091Z,99.90
2023-04-07T19:20:14.165Z,99.90
2023-04-07T19:22:43.987Z,99.90
2023-04-07T19:25:12.258Z,99.90
2023-04-07T19:27:40.981Z,99.90
2023-04-07T19:30:09.932Z,99.90
2023-04-07T19:32:39.468Z,99.90
2023-04-07T19:35:08.433Z,99.90
2023-04-07T19:37:37.826Z,99.90
2023-04-07T19:40:08.597Z,99.90
2023-04-07T19:42:36.748Z,99.90
2023-04-07T19:45:07.955Z,99.90
2023-04-07T19:47:38.203Z,99.90
2023-04-07T19:50:07.413Z,99.90
2023-04-07T19:52:35.521Z,99.90
2023-04-07T19:55:04.683Z,99.90
2023-04-07T19:57:34.983Z,99.90
2023-04-07T20:00:04.123Z,99.90
2023-04-07T20:02:32.280Z,99.90
2023-04-07T20:13:07.761Z,99.90
2023-04-07T20:20:13.401Z,99.90
2023-04-07T20:22:41.641Z,99.90
2023-04-07T20:25:09.723Z,99.90
2023-04-07T20:27:38.613Z,99.90
2023-04-07T20:30:08.970Z,99.90
2023-04-07T20:32:37.009Z,99.90
2023-04-07T20:35:05.398Z,99.90
2023-04-07T20:37:34.770Z,99.90
2023-04-07T20:40:04.052Z,99.90
2023-04-07T20:42:32.033Z,99.90
2023-04-07T20:45:03.804Z,99.90
2023-04-07T20:47:35.880Z,99.90
2023-04-07T20:50:04.156Z,99.90
2023-04-07T20:52:32.209Z,99.90
2023-04-07T20:55:01.649Z,99.90
2023-04-07T20:57:29.618Z,99.90
2023-04-07T20:59:57.596Z,99.90
2023-04-07T21:02:25.824Z,99.90
2023-04-07T21:04:53.980Z,99.90
2023-04-07T21:07:21.956Z,99.90
2023-04-07T21:09:50.163Z,99.90
2023-04-07T21:12:19.490Z,99.90
2023-04-07T21:14:47.432Z,99.90
2023-04-07T21:17:15.616Z,99.90
2023-04-07T21:19:43.591Z,99.90
2023-04-07T21:22:12.805Z,99.90
2023-04-07T21:24:40.966Z,99.90
2023-04-07T21:27:08.967Z,99.90
2023-04-07T21:29:40.249Z,99.90
2023-04-07T21:32:08.362Z,99.90
2023-04-07T21:34:36.353Z,99.90
2023-04-07T21:37:04.324Z,99.90
2023-04-07T21:39:34.032Z,99.90
2023-04-07T21:42:03.129Z,99.90
2023-04-07T21:44:31.731Z,99.90
2023-04-07T21:47:01.008Z,99.90
2023-04-07T21:49:28.948Z,99.90
2023-04-07T21:51:56.926Z,99.90
2023-04-07T21:54:25.869Z,99.90
2023-04-07T21:56:54.064Z,99.90
2023-04-07T21:59:22.275Z,99.90
2023-04-07T22:01:50.687Z,99.90
2023-04-07T22:04:20.165Z,99.90
2023-04-07T22:06:48.274Z,99.90
2023-04-07T22:09:16.264Z,99.90
2023-04-07T22:11:44.224Z,99.90
2023-04-07T22:14:12.209Z,99.90
2023-04-07T22:16:40.316Z,99.90
2023-04-07T22:19:08.355Z,99.90
2023-04-07T22:21:37.687Z,99.90
2023-04-07T22:24:05.939Z,99.90
2023-04-07T22:26:33.983Z,99.90
2023-04-07T22:29:01.944Z,99.90
2023-04-07T22:31:30.020Z,99.90
2023-04-07T22:33:58.053Z,99.90
2023-04-07T22:36:26.657Z,99.90
2023-04-07T22:38:56.409Z,99.90
2023-04-07T22:41:24.466Z,99.90
2023-04-07T22:43:52.417Z,99.90
2023-04-07T22:46:20.388Z,99.90
2023-04-07T22:48:49.192Z,99.90
2023-04-07T22:51:17.388Z,99.90
2023-04-07T22:53:45.389Z,99.90
2023-04-07T22:56:14.904Z,99.90
2023-04-07T22:58:42.917Z,99.90
2023-04-07T23:01:11.028Z,99.90
2023-04-07T23:03:39.230Z,99.90
2023-04-07T23:06:07.367Z,99.90
2023-04-07T23:08:35.415Z,99.90
2023-04-07T23:11:03.412Z,99.90
2023-04-07T23:13:33.211Z,99.90
2023-04-07T23:16:03.709Z,99.90
2023-04-07T23:18:31.835Z,99.90
2023-04-07T23:20:59.754Z,99.90
2023-04-07T23:23:27.739Z,99.90
2023-04-07T23:25:56.052Z,99.90
2023-04-07T23:28:24.036Z,99.90
2023-04-07T23:30:53.341Z,99.90
2023-04-07T23:33:21.360Z,99.90
2023-04-07T23:35:49.414Z,99.90
2023-04-07T23:38:17.465Z,99.90
2023-04-07T23:40:45.428Z,99.90
2023-04-07T23:43:13.391Z,99.90
2023-04-07T23:45:41.406Z,99.90
2023-04-07T23:48:10.814Z,99.90
2023-04-07T23:50:38.791Z,99.90
2023-04-07T23:53:06.797Z,99.90
2023-04-07T23:55:34.770Z,99.90
2023-04-07T23:58:02.911Z,99.90
